Terminal Aerodrome Forecast
Issued by NWS

Home | Current Version | Previous Version | Text Only | Print | Product List | Glossary On
Versions: 1 2 3 4 5 6 7 8 9 10 11 12 13 14 15 16 17 18 19 20 21 22
351
FTUS42 KFFC 251237 AAA
TAFFTY
TAF AMD
KFTY 251237Z 2513/2612 29014G24KT P6SM SCT027 BKN040 OVC090
     FM251600 30012G22KT P6SM FEW040
     FM251800 31014G24KT P6SM SKC
     FM260000 31009KT P6SM SKC
     FM260900 34004KT P6SM SKC=

USA.gov is the U.S. government's official web portal to all federal, state and local government web resources and services.